Time;durP1;ratioP1;P1;durP2;ratioP2;P2;SDS_P1;SDS_P2;PMS_P1;PMS_P2;Temp;Humidity;BMP_temperature;BMP_pressure;BME280_temperature;BME280_humidity;BME280_pressure;Samples;Min_cycle;Max_cycle;Signal;HPM_P1;HPM_P2
2022/05/05 00:00:54;;;;;;;2.03;0.40;;;;;;;12.10;100.00;100350.50;7385813;19;20025;-81
2022/05/05 00:03:20;;;;;;;0.80;0.70;;;;;;;12.13;100.00;100352.31;7386800;19;20014;-81
2022/05/05 00:05:46;;;;;;;1.55;0.47;;;;;;;12.17;100.00;100350.13;7386761;19;20023;-82
2022/05/05 00:08:12;;;;;;;0.30;0.17;;;;;;;12.20;100.00;100348.41;7383649;19;20034;-81
2022/05/05 00:16:09;;;;;;;3.90;0.75;;;;;;;12.33;100.00;100362.13;7387466;19;20044;-81
2022/05/05 00:18:36;;;;;;;1.83;1.30;;;;;;;12.40;100.00;100368.13;7384906;19;20022;-81
2022/05/05 00:21:02;;;;;;;13.15;0.45;;;;;;;12.31;100.00;100364.63;7386530;19;20021;-81
2022/05/05 00:23:28;;;;;;;1.42;0.70;;;;;;;12.28;100.00;100363.53;7384806;19;20373;-81
2022/05/05 00:25:55;;;;;;;0.35;0.22;;;;;;;12.36;100.00;100366.78;7387352;19;20029;-80
2022/05/05 00:28:21;;;;;;;0.30;0.30;;;;;;;12.41;100.00;100357.75;7381864;19;20022;-80
2022/05/05 00:30:48;;;;;;;0.95;0.45;;;;;;;12.44;100.00;100363.16;7384103;19;20433;-80
2022/05/05 00:33:14;;;;;;;0.28;0.28;;;;;;;12.44;100.00;100362.38;7384780;19;20010;-81
2022/05/05 00:35:40;;;;;;;0.60;0.45;;;;;;;12.57;100.00;100360.09;7393714;19;20014;-81
2022/05/05 00:38:06;;;;;;;0.60;0.40;;;;;;;12.68;100.00;100363.13;7393151;19;20022;-81
2022/05/05 00:40:32;;;;;;;1.65;0.95;;;;;;;12.70;100.00;100369.00;7391171;19;21048;-80
2022/05/05 00:42:59;;;;;;;0.20;0.10;;;;;;;12.68;100.00;100365.91;7393577;19;20575;-80
2022/05/05 00:45:25;;;;;;;3.13;0.75;;;;;;;12.74;100.00;100375.19;7394159;19;20025;-81
2022/05/05 00:47:51;;;;;;;0.32;0.22;;;;;;;12.75;100.00;100365.56;7389693;19;20872;-81
2022/05/05 00:50:20;;;;;;;0.57;0.57;;;;;;;12.75;100.00;100371.16;7389820;19;20042;-81
2022/05/05 00:52:46;;;;;;;1.35;0.88;;;;;;;12.75;100.00;100377.53;7389118;19;20015;-81
2022/05/05 00:55:12;;;;;;;0.68;0.32;;;;;;;12.72;100.00;100366.50;7389142;19;20485;-80
2022/05/05 00:57:39;;;;;;;1.45;0.43;;;;;;;12.65;100.00;100366.88;7392012;19;20017;-81
2022/05/05 01:00:06;;;;;;;1.02;0.50;;;;;;;12.63;100.00;100363.78;7392378;19;20022;-81
2022/05/05 01:02:35;;;;;;;0.45;0.40;;;;;;;12.57;100.00;100369.25;7393471;19;20035;-80
2022/05/05 01:05:01;;;;;;;2.13;0.28;;;;;;;12.50;100.00;100372.41;7393039;19;20023;-81
2022/05/05 01:07:28;;;;;;;0.35;0.35;;;;;;;12.60;100.00;100370.34;7388081;19;20369;-81
2022/05/05 01:09:54;;;;;;;0.80;0.80;;;;;;;12.57;100.00;100365.69;7390516;19;20081;-80
2022/05/05 01:12:22;;;;;;;2.13;0.98;;;;;;;12.53;100.00;100365.88;7392044;19;20090;-85
2022/05/05 01:14:48;;;;;;;3.50;0.82;;;;;;;12.48;100.00;100376.91;7395398;19;20026;-80
2022/05/05 01:17:15;;;;;;;0.90;0.50;;;;;;;12.38;100.00;100367.84;7394499;19;20078;-80
2022/05/05 01:19:41;;;;;;;0.45;0.45;;;;;;;12.34;100.00;100377.66;7395872;19;20125;-81
2022/05/05 01:22:07;;;;;;;2.10;0.55;;;;;;;12.26;100.00;100379.25;7393121;19;20018;-81
2022/05/05 01:30:05;;;;;;;0.35;0.35;;;;;;;11.94;100.00;100387.16;7386924;19;20074;-81
2022/05/05 01:32:33;;;;;;;0.90;0.52;;;;;;;11.96;100.00;100379.09;7389651;19;20029;-82
2022/05/05 01:34:59;;;;;;;0.40;0.30;;;;;;;11.96;100.00;100387.47;7390570;19;20026;-82
2022/05/05 01:37:29;;;;;;;2.75;0.50;;;;;;;11.98;100.00;100389.78;7393397;19;20031;-81
2022/05/05 01:39:55;;;;;;;3.63;0.43;;;;;;;11.92;100.00;100386.84;7390959;19;20029;-81
2022/05/05 01:42:21;;;;;;;0.93;0.32;;;;;;;11.89;100.00;100390.59;7390693;19;20019;-81
2022/05/05 01:44:48;;;;;;;1.05;0.55;;;;;;;11.82;100.00;100393.72;7389168;19;20045;-81
2022/05/05 01:47:14;;;;;;;0.73;0.68;;;;;;;11.88;100.00;100393.84;7387514;19;20501;-83
2022/05/05 01:49:40;;;;;;;0.28;0.28;;;;;;;11.90;100.00;100397.72;7388644;19;20074;-81
2022/05/05 01:52:09;;;;;;;0.35;0.30;;;;;;;11.92;100.00;100400.03;7388324;19;20484;-81
2022/05/05 01:54:35;;;;;;;0.75;0.60;;;;;;;11.97;100.00;100402.19;7388968;19;20011;-81
2022/05/05 01:57:01;;;;;;;1.60;0.40;;;;;;;12.07;100.00;100406.47;7389685;19;20018;-82
2022/05/05 01:59:27;;;;;;;0.47;0.40;;;;;;;12.06;100.00;100402.91;7390037;19;20063;-84
2022/05/05 02:01:53;;;;;;;0.95;0.50;;;;;;;12.13;100.00;100407.38;7391061;19;20018;-83
2022/05/05 02:04:20;;;;;;;0.22;0.22;;;;;;;12.15;100.00;100402.88;7390154;19;20089;-83
2022/05/05 02:06:46;;;;;;;3.30;1.30;;;;;;;12.22;100.00;100395.38;7391696;19;20476;-79
2022/05/05 02:09:12;;;;;;;0.60;0.28;;;;;;;12.24;100.00;100398.47;7388909;19;20029;-80
2022/05/05 02:11:41;;;;;;;8.73;0.50;;;;;;;12.26;100.00;100396.00;7386960;19;20011;-81
2022/05/05 02:14:08;;;;;;;1.75;0.75;;;;;;;12.25;100.00;100388.88;7387844;19;20032;-83
2022/05/05 02:16:34;;;;;;;1.58;0.60;;;;;;;12.30;100.00;100393.81;7390252;19;20014;-82
2022/05/05 02:19:00;;;;;;;2.05;0.55;;;;;;;12.29;100.00;100401.41;7389644;19;20015;-83
2022/05/05 02:21:26;;;;;;;2.30;0.50;;;;;;;12.36;100.00;100394.69;7392858;19;20049;-83
2022/05/05 02:23:52;;;;;;;0.40;0.40;;;;;;;12.35;100.00;100390.34;7389044;19;20027;-83
2022/05/05 02:26:18;;;;;;;0.32;0.32;;;;;;;12.38;100.00;100398.56;7392266;19;20105;-82
2022/05/05 02:28:45;;;;;;;3.20;0.45;;;;;;;12.40;100.00;100406.47;7388273;19;20014;-80
2022/05/05 02:31:11;;;;;;;0.88;0.38;;;;;;;12.44;100.00;100401.47;7389643;19;20089;-80
2022/05/05 02:33:37;;;;;;;0.30;0.10;;;;;;;12.29;100.00;100406.22;7388281;19;20457;-80
2022/05/05 02:38:48;;;;;;;0.55;0.50;;;;;;;12.45;100.00;100408.63;7387871;19;20021;-81
2022/05/05 02:41:15;;;;;;;0.35;0.32;;;;;;;12.43;100.00;100405.53;7388776;19;20015;-80
2022/05/05 02:43:41;;;;;;;3.45;1.48;;;;;;;12.48;100.00;100408.44;7389230;19;20014;-80
2022/05/05 02:46:07;;;;;;;1.27;0.30;;;;;;;12.58;100.00;100414.75;7390058;19;20379;-81
2022/05/05 02:48:33;;;;;;;1.65;0.65;;;;;;;12.68;100.00;100408.63;7387353;19;20019;-80
2022/05/05 02:50:59;;;;;;;2.75;0.20;;;;;;;12.75;100.00;100413.84;7387362;19;20706;-81
2022/05/05 02:56:11;;;;;;;1.10;1.10;;;;;;;12.83;100.00;100412.22;7390857;19;20010;-81
2022/05/05 02:58:37;;;;;;;1.13;0.30;;;;;;;12.81;100.00;100414.72;7388575;19;20019;-81
2022/05/05 03:01:04;;;;;;;4.22;0.65;;;;;;;12.76;100.00;100414.59;7388020;19;20025;-80
2022/05/05 03:03:30;;;;;;;2.80;0.57;;;;;;;12.63;100.00;100414.06;7388424;19;20022;-81
2022/05/05 03:05:56;;;;;;;1.58;0.68;;;;;;;12.63;100.00;100409.25;7388665;19;20029;-81
2022/05/05 03:08:22;;;;;;;0.38;0.38;;;;;;;12.87;100.00;100417.63;7387415;19;20014;-81
2022/05/05 03:10:48;;;;;;;0.95;0.68;;;;;;;13.04;100.00;100409.59;7387054;19;20018;-81
2022/05/05 03:13:14;;;;;;;0.60;0.60;;;;;;;13.00;100.00;100414.56;7385681;19;20018;-80
2022/05/05 03:15:40;;;;;;;1.65;0.40;;;;;;;13.01;100.00;100416.91;7388326;19;20014;-81
2022/05/05 03:18:06;;;;;;;0.30;0.30;;;;;;;12.98;100.00;100411.47;7386395;19;20011;-81
2022/05/05 03:20:33;;;;;;;0.73;0.32;;;;;;;12.95;100.00;100429.97;7388529;19;20014;-81
2022/05/05 03:22:59;;;;;;;0.73;0.65;;;;;;;13.01;100.00;100425.28;7386512;19;20078;-80
2022/05/05 03:25:25;;;;;;;4.05;1.48;;;;;;;12.94;100.00;100428.44;7387461;19;20019;-80
2022/05/05 03:27:54;;;;;;;2.53;0.93;;;;;;;12.83;100.00;100428.22;7386470;19;20051;-81
2022/05/05 03:30:20;;;;;;;0.40;0.15;;;;;;;12.73;100.00;100427.50;7385969;19;20010;-81
2022/05/05 03:32:46;;;;;;;1.65;0.63;;;;;;;12.85;100.00;100425.72;7384819;19;20045;-81
2022/05/05 03:35:13;;;;;;;0.90;0.90;;;;;;;12.83;100.00;100428.22;7385497;19;20045;-81
2022/05/05 03:37:39;;;;;;;0.90;0.60;;;;;;;12.63;100.00;100430.84;7388190;19;20022;-81
2022/05/05 03:40:05;;;;;;;6.65;1.17;;;;;;;12.53;100.00;100427.34;7386284;19;20037;-78
2022/05/05 03:42:32;;;;;;;1.85;0.77;;;;;;;12.41;100.00;100433.16;7387762;19;20037;-80
2022/05/05 03:44:58;;;;;;;1.88;0.55;;;;;;;12.27;100.00;100442.22;7388651;19;20032;-80
2022/05/05 03:47:24;;;;;;;1.42;0.75;;;;;;;12.19;100.00;100442.56;7383897;19;20022;-81
2022/05/05 03:49:50;;;;;;;1.92;0.68;;;;;;;12.15;100.00;100443.97;7383359;19;20015;-80
2022/05/05 03:52:16;;;;;;;0.57;0.35;;;;;;;12.12;100.00;100454.09;7382743;19;20018;-81
2022/05/05 03:54:42;;;;;;;3.53;1.33;;;;;;;12.02;100.00;100444.19;7384946;19;20019;-80
2022/05/05 03:57:08;;;;;;;0.47;0.38;;;;;;;11.95;100.00;100450.09;7385932;19;20015;-80
2022/05/05 03:59:35;;;;;;;2.33;0.65;;;;;;;11.75;100.00;100449.88;7387348;19;20078;-81
2022/05/05 04:02:01;;;;;;;5.93;0.68;;;;;;;11.65;100.00;100451.09;7386533;19;20039;-80
2022/05/05 04:04:27;;;;;;;3.13;0.93;;;;;;;11.55;100.00;100446.00;7386701;19;20015;-81
2022/05/05 04:06:53;;;;;;;15.15;0.73;;;;;;;11.41;100.00;100450.97;7386539;19;20094;-80
2022/05/05 04:09:19;;;;;;;0.65;0.43;;;;;;;11.29;100.00;100448.34;7388694;19;20022;-80
2022/05/05 04:11:45;;;;;;;4.28;1.08;;;;;;;11.19;100.00;100455.19;7390860;19;20018;-81
2022/05/05 04:14:12;;;;;;;1.65;0.65;;;;;;;11.08;100.00;100455.66;7389294;19;20018;-81
2022/05/05 04:16:38;;;;;;;5.97;1.15;;;;;;;11.04;100.00;100459.84;7393905;19;20029;-81
2022/05/05 04:19:05;;;;;;;1.45;0.82;;;;;;;11.06;100.00;100468.50;7393538;19;20019;-81
2022/05/05 04:21:31;;;;;;;1.08;0.60;;;;;;;11.01;100.00;100469.09;7396330;19;20341;-81
2022/05/05 04:23:58;;;;;;;2.15;0.75;;;;;;;11.01;100.00;100472.69;7393611;19;20626;-80
2022/05/05 04:26:25;;;;;;;0.55;0.55;;;;;;;11.02;100.00;100479.78;7393705;19;20035;-80
2022/05/05 04:28:51;;;;;;;2.53;0.75;;;;;;;10.90;100.00;100483.50;7393058;19;20043;-83
2022/05/05 04:31:20;;;;;;;3.08;1.30;;;;;;;10.97;100.00;100480.41;7391732;19;20367;-80
2022/05/05 04:33:46;;;;;;;0.60;0.60;;;;;;;10.99;100.00;100479.94;7392360;19;20516;-82
2022/05/05 04:36:12;;;;;;;1.38;0.82;;;;;;;11.09;100.00;100485.06;7391576;19;20014;-82
2022/05/05 04:38:39;;;;;;;0.60;0.60;;;;;;;11.19;100.00;100485.84;7392024;19;20138;-82
2022/05/05 04:41:05;;;;;;;2.38;0.88;;;;;;;11.26;100.00;100488.34;7393392;19;20018;-82
2022/05/05 04:43:32;;;;;;;3.42;1.00;;;;;;;11.21;100.00;100491.75;7391373;19;20094;-81
2022/05/05 04:45:58;;;;;;;0.55;0.50;;;;;;;11.26;100.00;100489.09;7390535;19;20011;-81
2022/05/05 04:48:24;;;;;;;3.25;1.45;;;;;;;11.31;100.00;100493.28;7391955;19;20015;-81
2022/05/05 04:50:50;;;;;;;2.63;0.60;;;;;;;11.35;100.00;100491.88;7388406;19;20027;-83
2022/05/05 04:53:16;;;;;;;0.47;0.47;;;;;;;11.42;100.00;100490.78;7390503;19;20026;-81
2022/05/05 04:55:42;;;;;;;5.05;1.08;;;;;;;11.40;100.00;100499.63;7391753;19;20010;-81
2022/05/05 04:58:08;;;;;;;0.68;0.25;;;;;;;11.36;100.00;100499.03;7391600;19;20456;-81
2022/05/05 05:00:36;;;;;;;0.40;0.40;;;;;;;11.29;100.00;100507.69;7392529;19;20478;-81
2022/05/05 05:03:02;;;;;;;2.05;0.77;;;;;;;11.27;100.00;100509.41;7392170;19;20476;-80
2022/05/05 05:05:28;;;;;;;2.85;0.70;;;;;;;11.26;100.00;100505.06;7391847;19;20479;-81
2022/05/05 05:07:54;;;;;;;1.10;0.85;;;;;;;11.20;100.00;100507.69;7390365;19;20034;-81
2022/05/05 05:10:20;;;;;;;1.13;0.85;;;;;;;11.10;100.00;100519.28;7388031;19;20010;-81
2022/05/05 05:12:47;;;;;;;0.25;0.25;;;;;;;11.17;100.00;100516.22;7389862;19;20026;-81
2022/05/05 05:15:13;;;;;;;0.68;0.40;;;;;;;11.25;100.00;100511.88;7389124;19;20014;-81
2022/05/05 05:17:40;;;;;;;3.00;0.32;;;;;;;11.24;100.00;100513.88;7390465;19;20022;-80
2022/05/05 05:20:06;;;;;;;4.47;0.90;;;;;;;11.19;100.00;100516.53;7388879;19;20022;-81
2022/05/05 05:22:33;;;;;;;4.80;0.98;;;;;;;11.12;100.00;100516.81;7395091;19;20583;-81
2022/05/05 05:24:59;;;;;;;2.63;0.85;;;;;;;11.17;100.00;100524.56;7390020;19;20488;-81
2022/05/05 05:27:25;;;;;;;0.40;0.40;;;;;;;11.12;100.00;100522.38;7388645;19;20018;-80
2022/05/05 05:29:51;;;;;;;0.68;0.68;;;;;;;11.12;100.00;100523.16;7388055;19;20022;-81
2022/05/05 05:32:17;;;;;;;0.85;0.68;;;;;;;11.05;100.00;100533.84;7388845;19;20022;-81
2022/05/05 05:34:43;;;;;;;0.65;0.60;;;;;;;11.09;100.00;100534.47;7389699;19;20365;-81
2022/05/05 05:37:09;;;;;;;2.88;0.82;;;;;;;11.11;100.00;100537.59;7388819;19;20047;-81
2022/05/05 05:39:36;;;;;;;0.50;0.45;;;;;;;11.18;100.00;100537.25;7388805;19;20015;-81
2022/05/05 05:42:02;;;;;;;1.75;0.65;;;;;;;11.37;100.00;100544.41;7389291;19;20014;-81
2022/05/05 05:44:28;;;;;;;2.53;0.93;;;;;;;11.46;100.00;100541.63;7389386;19;20018;-81
2022/05/05 05:46:55;;;;;;;2.17;1.48;;;;;;;11.55;100.00;100543.63;7386028;19;20027;-81
2022/05/05 05:49:21;;;;;;;1.02;0.57;;;;;;;11.68;100.00;100547.84;7392365;19;20356;-81
2022/05/05 05:51:47;;;;;;;0.90;0.60;;;;;;;11.86;100.00;100549.84;7386994;19;20022;-81
2022/05/05 05:54:14;;;;;;;1.40;0.47;;;;;;;12.05;100.00;100549.34;7388671;19;20037;-81
2022/05/05 05:56:40;;;;;;;1.63;0.60;;;;;;;12.22;100.00;100557.34;7388891;19;20515;-81
2022/05/05 05:59:06;;;;;;;3.03;0.68;;;;;;;12.42;100.00;100549.22;7388378;19;20026;-81
2022/05/05 06:04:17;;;;;;;1.05;0.75;;;;;;;12.77;100.00;100559.47;7390669;19;20122;-79
2022/05/05 06:06:43;;;;;;;2.83;0.88;;;;;;;12.88;100.00;100558.97;7386573;19;20367;-80
2022/05/05 06:09:09;;;;;;;2.25;0.50;;;;;;;12.88;100.00;100553.38;7386847;19;20015;-80
2022/05/05 06:11:35;;;;;;;1.42;0.63;;;;;;;12.94;100.00;100562.66;7387606;19;20086;-79
2022/05/05 06:14:04;;;;;;;2.50;1.27;;;;;;;13.05;100.00;100567.75;7384611;19;20017;-79
2022/05/05 06:16:30;;;;;;;0.77;0.77;;;;;;;13.26;100.00;100570.25;7393919;19;20019;-79
2022/05/05 06:18:56;;;;;;;3.70;2.00;;;;;;;13.42;100.00;100564.22;7392254;19;20396;-79
2022/05/05 06:21:22;;;;;;;2.53;0.90;;;;;;;13.58;100.00;100569.38;7390376;19;20082;-79
2022/05/05 06:23:49;;;;;;;0.40;0.40;;;;;;;13.62;100.00;100577.59;7389938;19;20049;-79
2022/05/05 06:26:15;;;;;;;5.63;1.40;;;;;;;13.69;100.00;100566.78;7391368;19;20090;-80
2022/05/05 06:28:42;;;;;;;2.50;0.93;;;;;;;13.75;100.00;100569.72;7387511;19;20022;-80
2022/05/05 06:31:08;;;;;;;0.95;0.75;;;;;;;13.79;100.00;100572.31;7386838;19;20437;-79
2022/05/05 06:33:34;;;;;;;1.38;0.82;;;;;;;13.90;100.00;100570.50;7385935;19;20535;-80
2022/05/05 06:36:00;;;;;;;0.95;0.82;;;;;;;14.08;100.00;100569.53;7390668;19;20025;-79
2022/05/05 06:38:26;;;;;;;3.63;0.45;;;;;;;14.18;100.00;100571.00;7386287;19;20015;-80
2022/05/05 06:40:52;;;;;;;1.20;1.08;;;;;;;14.38;100.00;100559.88;7387360;19;20011;-79
2022/05/05 06:43:18;;;;;;;0.82;0.32;;;;;;;14.54;100.00;100573.41;7386352;19;20014;-79
2022/05/05 06:45:45;;;;;;;2.85;1.20;;;;;;;14.63;100.00;100569.72;7390072;19;20019;-80
2022/05/05 06:48:13;;;;;;;1.35;0.85;;;;;;;14.79;100.00;100566.41;7389297;19;20030;-80
2022/05/05 06:50:39;;;;;;;0.57;0.57;;;;;;;14.80;100.00;100574.34;7384908;19;20074;-80
2022/05/05 06:53:05;;;;;;;4.57;1.17;;;;;;;14.93;100.00;100577.59;7385009;19;20018;-79
2022/05/05 06:55:31;;;;;;;0.80;0.45;;;;;;;15.04;100.00;100588.97;7389102;19;20048;-79
2022/05/05 06:57:57;;;;;;;1.48;0.30;;;;;;;15.17;100.00;100585.84;7386643;19;20817;-79
2022/05/05 07:00:24;;;;;;;2.38;0.50;;;;;;;15.30;100.00;100585.47;7387793;19;20015;-80
2022/05/05 07:02:50;;;;;;;1.13;0.32;;;;;;;15.38;100.00;100590.19;7387059;19;20010;-79
2022/05/05 07:05:26;;;;;;;1.88;0.25;;;;;;;15.49;100.00;100583.97;7389209;19;20362;-78
2022/05/05 07:07:54;;;;;;;0.45;0.28;;;;;;;15.68;100.00;100590.84;7384337;19;20023;-80
2022/05/05 07:13:07;;;;;;;2.50;0.80;;;;;;;15.62;100.00;100599.19;7386800;19;20484;-80
2022/05/05 07:15:33;;;;;;;0.63;0.52;;;;;;;15.61;100.00;100606.09;7385799;19;20021;-80
2022/05/05 07:18:00;;;;;;;1.95;0.57;;;;;;;15.65;100.00;100598.22;7387288;19;20026;-80
2022/05/05 07:20:26;;;;;;;1.25;0.40;;;;;;;15.70;100.00;100605.94;7387763;19;20018;-80
2022/05/05 07:22:52;;;;;;;0.30;0.30;;;;;;;15.71;100.00;100606.72;7387443;19;20540;-80
2022/05/05 07:25:19;;;;;;;0.85;0.45;;;;;;;15.70;100.00;100605.94;7386742;19;20018;-81
2022/05/05 07:27:46;;;;;;;3.95;0.57;;;;;;;15.84;100.00;100612.72;7385068;19;20078;-80
2022/05/05 07:30:13;;;;;;;0.50;0.47;;;;;;;15.89;100.00;100614.84;7384580;19;20026;-80
2022/05/05 07:32:40;;;;;;;1.70;0.47;;;;;;;16.08;100.00;100618.88;7383202;19;20018;-81
2022/05/05 07:35:06;;;;;;;1.27;0.50;;;;;;;16.18;100.00;100617.44;7384985;19;20014;-80
2022/05/05 07:37:32;;;;;;;0.98;0.40;;;;;;;16.25;100.00;100625.44;7385939;19;20022;-80
2022/05/05 07:39:58;;;;;;;0.75;0.70;;;;;;;16.28;100.00;100618.84;7385558;19;20021;-81
2022/05/05 07:42:25;;;;;;;2.72;0.38;;;;;;;16.39;100.00;100621.75;7382391;19;20026;-80
2022/05/05 07:44:51;;;;;;;1.33;0.88;;;;;;;16.43;100.00;100627.91;7386558;19;20022;-80
2022/05/05 07:47:17;;;;;;;0.20;0.10;;;;;;;16.48;100.00;100624.38;7381965;19;20360;-81
2022/05/05 07:49:43;;;;;;;0.55;0.20;;;;;;;16.51;100.00;100628.25;7384363;19;20019;-80
2022/05/05 07:52:09;;;;;;;0.57;0.40;;;;;;;16.65;100.00;100633.75;7384351;19;20018;-80
2022/05/05 07:54:39;;;;;;;1.35;0.45;;;;;;;16.83;100.00;100631.88;7384766;19;20011;-80
2022/05/05 07:57:07;;;;;;;0.40;0.20;;;;;;;16.94;100.00;100624.25;7384840;19;20662;-81
2022/05/05 07:59:34;;;;;;;3.45;0.40;;;;;;;17.02;100.00;100630.22;7383919;19;20026;-80
2022/05/05 08:02:01;;;;;;;0.85;0.60;;;;;;;17.13;100.00;100633.09;7385743;19;20018;-80
2022/05/05 08:04:27;;;;;;;0.75;0.28;;;;;;;17.33;100.00;100630.91;7386339;19;20014;-80
2022/05/05 08:06:53;;;;;;;0.90;0.45;;;;;;;17.47;100.00;100640.47;7384843;19;20014;-80
2022/05/05 08:09:19;;;;;;;0.20;0.20;;;;;;;17.58;100.00;100632.09;7383745;19;20355;-80
2022/05/05 08:11:45;;;;;;;1.45;0.47;;;;;;;17.67;100.00;100626.22;7384688;19;20491;-80
2022/05/05 08:14:11;;;;;;;1.40;0.50;;;;;;;17.73;100.00;100635.50;7384059;19;20019;-80
2022/05/05 08:16:38;;;;;;;1.23;0.47;;;;;;;17.74;100.00;100631.38;7384131;19;20727;-79
2022/05/05 08:19:06;;;;;;;0.45;0.15;;;;;;;17.80;100.00;100635.00;7389369;19;20032;-80
2022/05/05 08:21:33;;;;;;;2.63;0.80;;;;;;;17.83;100.00;100631.16;7387067;19;20014;-79
2022/05/05 08:29:29;;;;;;;0.47;0.10;;;;;;;17.56;100.00;100631.84;7385776;19;20019;-79
2022/05/05 08:31:55;;;;;;;1.67;0.88;;;;;;;17.59;100.00;100635.66;7385194;19;20352;-79
2022/05/05 08:34:21;;;;;;;1.98;0.52;;;;;;;17.56;100.00;100629.03;7382550;19;20026;-79
2022/05/05 08:36:47;;;;;;;1.65;0.32;;;;;;;17.67;100.00;100634.69;7385494;19;20022;-79
2022/05/05 08:39:14;;;;;;;2.03;0.40;;;;;;;17.71;100.00;100637.28;7386618;19;20026;-79
2022/05/05 08:41:40;;;;;;;1.25;0.28;;;;;;;17.59;100.00;100628.00;7388910;19;20517;-79
2022/05/05 08:44:09;;;;;;;0.63;0.30;;;;;;;17.55;100.00;100641.56;7384934;19;20356;-79
2022/05/05 08:46:39;;;;;;;0.77;0.50;;;;;;;17.57;100.00;100627.72;7380524;19;20030;-79
2022/05/05 08:49:06;;;;;;;3.72;1.45;;;;;;;17.64;100.00;100637.75;7387411;19;20033;-79
2022/05/05 08:51:44;;;;;;;1.48;0.50;;;;;;;17.64;100.00;100644.16;7383334;19;20110;-79
2022/05/05 08:54:16;;;;;;;1.63;0.47;;;;;;;17.53;100.00;100638.47;7387382;19;20056;-80
2022/05/05 08:56:50;;;;;;;3.28;1.30;;;;;;;17.59;100.00;100639.25;7393070;19;20122;-79
2022/05/05 08:59:18;;;;;;;6.68;0.32;;;;;;;17.64;100.00;100644.16;7390886;19;20870;-80
2022/05/05 09:01:44;;;;;;;1.00;0.55;;;;;;;17.82;100.00;100638.06;7391168;19;20019;-80
2022/05/05 09:04:11;;;;;;;1.05;0.65;;;;;;;18.18;100.00;100636.41;7389556;19;20018;-79
2022/05/05 09:06:46;;;;;;;1.27;0.73;;;;;;;18.54;100.00;100637.50;7387027;19;20018;-79
2022/05/05 09:09:35;;;;;;;0.43;0.40;;;;;;;18.61;100.00;100626.50;7391612;19;20050;-79
2022/05/05 09:12:11;;;;;;;0.88;0.52;;;;;;;18.77;100.00;100636.25;7391881;19;20484;-80
2022/05/05 09:14:43;;;;;;;4.63;0.88;;;;;;;18.98;100.00;100634.69;7391151;19;20098;-80
2022/05/05 09:17:21;;;;;;;1.90;0.50;;;;;;;19.09;100.00;100640.31;7391085;19;20034;-79
2022/05/05 09:19:51;;;;;;;4.38;1.45;;;;;;;19.09;100.00;100640.31;7392068;19;20088;-80
2022/05/05 09:22:22;;;;;;;3.95;0.90;;;;;;;19.08;100.00;100638.75;7394167;19;20399;-80
2022/05/05 09:24:51;;;;;;;4.75;0.73;;;;;;;19.16;100.00;100653.91;7388583;19;20486;-79
2022/05/05 09:27:24;;;;;;;1.13;0.50;;;;;;;19.26;100.00;100651.56;7387275;19;20022;-80
2022/05/05 09:30:04;;;;;;;1.90;1.25;;;;;;;19.28;100.00;100655.44;7387656;19;20010;-80
2022/05/05 09:32:35;;;;;;;7.73;0.90;;;;;;;19.09;100.00;100654.44;7386912;19;20010;-80
2022/05/05 09:35:08;;;;;;;4.70;0.95;;;;;;;18.88;100.00;100658.81;7389786;19;20275;-80
2022/05/05 09:37:36;;;;;;;3.65;0.90;;;;;;;18.72;100.00;100656.75;7388818;19;20463;-79
2022/05/05 09:40:04;;;;;;;1.55;0.68;;;;;;;18.67;100.00;100652.66;7390907;19;20022;-80
2022/05/05 09:42:38;;;;;;;2.05;1.05;;;;;;;18.69;100.00;100652.16;7387702;19;20475;-80
2022/05/05 09:45:13;;;;;;;2.92;0.63;;;;;;;18.67;100.00;100661.13;7391300;19;20050;-80
2022/05/05 09:47:41;;;;;;;0.75;0.30;;;;;;;18.62;100.00;100658.28;7387776;19;20033;-80
2022/05/05 09:50:08;;;;;;;0.70;0.20;;;;;;;18.60;100.00;100655.97;7388753;19;20022;-80
2022/05/05 09:58:09;;;;;;;0.45;0.40;;;;;;;18.57;100.00;100656.22;7389892;19;20494;-80
2022/05/05 10:00:45;;;;;;;3.67;1.55;;;;;;;18.75;100.00;100656.50;7386727;19;20062;-79
2022/05/05 10:06:08;;;;;;;2.35;0.70;;;;;;;18.92;100.00;100659.31;7390643;19;20022;-80
2022/05/05 10:08:40;;;;;;;2.08;0.57;;;;;;;19.17;100.00;100651.84;7386543;19;20357;-80
2022/05/05 10:11:07;;;;;;;1.20;0.65;;;;;;;19.18;100.00;100651.34;7386402;19;20034;-80
2022/05/05 10:13:40;;;;;;;0.80;0.60;;;;;;;19.08;100.00;100649.31;7388282;19;20074;-80
2022/05/05 10:16:09;;;;;;;3.70;0.63;;;;;;;19.15;100.00;100660.06;7391519;19;20018;-80
2022/05/05 10:18:38;;;;;;;3.20;1.10;;;;;;;19.36;100.00;100659.28;7392017;19;20023;-80
2022/05/05 10:21:08;;;;;;;1.45;0.75;;;;;;;19.52;100.00;100655.66;7390417;19;20041;-80
2022/05/05 10:24:20;;;;;;;2.30;0.30;;;;;;;19.47;100.00;100653.59;7388896;19;20019;-80
2022/05/05 10:26:52;;;;;;;4.78;0.82;;;;;;;19.62;100.00;100659.72;7388128;19;20038;-80
2022/05/05 10:29:35;;;;;;;1.10;0.85;;;;;;;19.61;100.00;100646.13;7386120;19;20025;-80
2022/05/05 10:32:11;;;;;;;1.42;0.63;;;;;;;19.54;100.00;100658.72;7390465;19;20056;-80
2022/05/05 10:34:42;;;;;;;2.00;0.50;;;;;;;19.49;100.00;100655.94;7387842;19;20018;-80
2022/05/05 10:37:10;;;;;;;1.60;0.82;;;;;;;19.38;100.00;100659.53;7389319;19;20015;-80
2022/05/05 10:40:10;;;;;;;1.75;0.50;;;;;;;19.40;100.00;100651.34;7388575;19;20105;-80
2022/05/05 10:42:45;;;;;;;1.48;0.40;;;;;;;19.71;100.00;100660.75;7386423;19;20801;-79
2022/05/05 10:45:15;;;;;;;1.88;0.50;;;;;;;20.22;100.00;100660.78;7387523;19;20028;-80
2022/05/05 10:48:01;;;;;;;1.52;0.68;;;;;;;20.32;100.00;100666.88;7388104;19;20360;-80
2022/05/05 10:50:56;;;;;;;0.65;0.60;;;;;;;20.19;100.00;100666.69;7388865;19;20017;-80
2022/05/05 10:53:40;;;;;;;5.68;1.00;;;;;;;20.38;100.00;100656.28;7386287;19;20763;-80
2022/05/05 10:56:27;;;;;;;0.80;0.65;;;;;;;20.47;100.00;100670.13;7387728;19;20014;-80
2022/05/05 10:58:57;;;;;;;5.38;0.75;;;;;;;20.53;100.00;100658.78;7385098;19;20043;-79
2022/05/05 11:01:25;;;;;;;1.90;0.60;;;;;;;20.58;100.00;100664.41;7384937;19;20022;-80
2022/05/05 11:04:07;;;;;;;1.02;0.50;;;;;;;20.49;100.00;100656.22;7386251;19;20570;-80
2022/05/05 11:06:38;;;;;;;0.85;0.73;;;;;;;20.58;100.00;100658.75;7386336;19;20552;-80
2022/05/05 11:09:05;;;;;;;3.00;1.40;;;;;;;20.75;100.00;100650.88;7388530;19;20046;-79
2022/05/05 11:11:44;;;;;;;4.60;0.73;;;;;;;20.93;100.00;100644.56;7387573;19;20338;-80
2022/05/05 11:23:08;;;;;;;5.57;1.23;;;;;;;20.93;100.00;100663.63;7387739;19;20031;-79
2022/05/05 11:25:41;;;;;;;1.52;0.52;;;;;;;21.12;100.00;100656.78;7388629;19;20086;-79
2022/05/05 11:28:10;;;;;;;2.53;0.68;;;;;;;21.18;100.00;100656.72;7385089;19;20018;-79
2022/05/05 11:30:37;;;;;;;0.50;0.40;;;;;;;21.28;100.00;100657.13;7385902;19;20006;-86
2022/05/05 11:33:03;;;;;;;8.13;1.35;;;;;;;21.39;100.00;100651.34;7386925;19;20370;-80
2022/05/05 11:35:29;;;;;;;5.00;0.75;;;;;;;21.22;100.00;100645.88;7388402;19;20014;-80
2022/05/05 11:37:55;;;;;;;1.70;0.77;;;;;;;21.00;100.00;100655.31;7385767;19;20015;-82
2022/05/05 11:40:22;;;;;;;2.78;1.17;;;;;;;20.97;100.00;100656.38;7385492;19;20026;-80
2022/05/05 11:45:37;;;;;;;1.63;0.85;;;;;;;21.79;100.00;100644.69;7388884;19;20369;-80
2022/05/05 11:48:17;;;;;;;3.25;1.65;;;;;;;22.07;100.00;100653.63;7384140;19;20025;-80
2022/05/05 11:50:44;;;;;;;3.67;2.25;;;;;;;22.02;100.00;100648.81;7384407;19;20022;-80
2022/05/05 11:53:17;;;;;;;1.83;1.38;;;;;;;21.77;100.00;100650.13;7386821;19;20016;-81
2022/05/05 11:55:48;;;;;;;2.08;1.35;;;;;;;21.74;100.00;100654.81;7391174;19;20007;-83
2022/05/05 11:58:15;;;;;;;;;;;;;;;21.89;100.00;100660.09;7393982;19;20361;-83
2022/05/05 12:03:26;;;;;;;1.92;1.30;;;;;;;22.13;100.00;100657.19;7394298;19;20018;-85
2022/05/05 12:05:53;;;;;;;1.75;0.98;;;;;;;22.32;100.00;100652.28;7394962;19;20053;-83
2022/05/05 12:08:20;;;;;;;4.90;1.10;;;;;;;22.40;100.00;100653.19;7392777;19;20066;-85
2022/05/05 12:10:48;;;;;;;7.68;1.65;;;;;;;22.28;100.00;100651.81;7391113;19;20011;-86